Archival Weather

Chicago O'Hare International

Chicago, Illinois (KORD)

Report from: Tuesday, December 6, 2022 7:51 PM CST
Current time: Saturday, February 4, 2023 10:48 PM CST

Current weather
Weather history
Weather forecast

Temperature5.0°C (41.0°F)
Dew point1.7°C (35.1°F)
Winds Calm
Visibility7 mi. (11.3 km)
Clouds Few clouds 1,500 ft. (457 m)
Scattered clouds 2,100 ft. (640 m)
Ceiling: Broken clouds 9,000 ft. (2,743 m)
Broken clouds 14,000 ft. (4,267 m)
Broken clouds 17,000 ft. (5,182 m)
Altimeter30.04 in.Hg (1017 mB)
Relative humidity79 %
Density altitude-1,242 ft. (-379 m)
Sea-level pressure101.8 kPa (1018 mB, 30.05 in.Hg)
Remarks Automated weather observing station with precipitation discriminator
Flight conditions Visual Meteorological Conditions
Raw dataKORD 070151Z 00000KT 7SM FEW015 SCT021 BKN090 BKN140 BKN170 05/02 A3004 RMK AO2 SLP177 T00500017
An unhandled exception has occurred. See browser dev tools for details. Reload 🗙